Aérodrome :
LOGIN :

S'inscrire | Disclaimer

   EN    FR    IT 

 










Légende :    VFR   VFR Marginal   IFR   IFR Intensif   IFR Très Intensif
Visi : 
Plafond : 
>= 8 km
>= 3000ft
5 à 8 km
1000 à 3000 ft
1500m à 5 km
500 à 1000 ft
800 à 1500m
200 à 500 ft
< 800m
< 200 ft
Symboles :   Orages  Brouillard  Fortes neiges  Fortes précipitations  Vent > 20 kt
SIGMETs :   Divers  Orages  Givrage  Turbulence  Onde Orograph.  Cendres Volcan.






- Altitude de l'aérodrome : 1906 ft
- Code IATA : INN


LOWI - Innsbruck

DERNIER METAR :
  • 171520Z VRB02KT 6000 RA FEW004 SCT022 BKN045 02/02 Q1003 R08/29//95 BECMG -RA

METARs EXPIRÉS :
  • 171450Z VRB02KT 6000 RA FEW004 BKN022 02/01 Q1003 R08/29//95 BECMG -RA
  • 171420Z 12003KT 080V160 7000 RA SCT004 BKN022 02/01 Q1003 R08/29//95 TEMPO -RA
  • 171350Z 07003KT 040V120 8000 -RA FEW004 SCT012 BKN022 02/01 Q1003 RERA R08/29//95 TEMPO RA
  • 171320Z VRB02KT 8000 RA FEW004 BKN024 02/01 Q1003 R08/29//95 TEMPO -RA
  • 171250Z 12003KT 090V160 6000 RASN SCT004 SCT010 BKN024 01/01 Q1003 R08/29//95 TEMPO 4000 -RASN BKN005

TAF TAF LOWI
Valide du 17 à 12h jusqu'au 18 à 12h UTC


171115Z 1712/1812 08006KT 7000 -RASN FEW005 BKN030 TX07/1812Z TN01/1803Z
TEMPO 1712/1716 4000 RASN FEW003 BKN010
BECMG 1716/1718 27006KT NSW FEW008 SCT060
TEMPO 1720/1808 BKN008
PROB30
TEMPO 1803/1807 VRB02KT 1200 BCFG SCT005



MET'MAP, la Météo Aéronautique d'un coup d'oeil ! - Copyright ORBIFLY Décembre 2007 - Disclaimer

ORBIFLY MET'MAP TEAM :

Programmation & Développement : Alexandra Zaïnal
Conception & Développement : Baudouin d'Aumeries
Co-Programmation & Développement : Marc-Olivier Méhu
Soutien technique & logistique : Manuel Goepfert

Contact : metmap@orbifly.com




SOURCES & CREDITS :

   NOAA